Philomath, Oregon
Current Conditions -  °F | °C
As of 11:35 AM on Thursday 23 Oct 2014 (Local Time) from KCVO Reporting Station
Clear Clear  
Wind Chill: 59°   Ceiling: Unl
Heat Index: 59°   Visibility: 10mi
Dew Point: 54°   Wind: 10mph
Humidity: 82%   Direction: 180°S
Pressure: 29.91"   Gusts: NA
Location:  44.54°N, 123.37°W
Report Text: KCVO 231835Z AUTO 18009KT 10SM CLR 15/12 A2991 RMK AO1
Loading
Personal Weather Stations






























Interactive Weather Map
Tropical Storm Tracking
New forecast layout! Learn more

10-Day Weather Forecast

Advertisements
Track Severe Weather on mobile